Time;durP1;ratioP1;P1;durP2;ratioP2;P2;SDS_P1;SDS_P2;PMS_P1;PMS_P2;Temp;Humidity;BMP_temperature;BMP_pressure;BME280_temperature;BME280_humidity;BME280_pressure;Samples;Min_cycle;Max_cycle;Signal;HPM_P1;HPM_P2
2020/12/19 00:01:49;;;;;;;70.18;39.17;;;;;;;6.44;100.00;102620.75;5016635;28;20045;-73
2020/12/19 00:04:35;;;;;;;71.05;39.92;;;;;;;6.51;100.00;102615.75;5016395;28;20018;-74
2020/12/19 00:07:21;;;;;;;74.65;41.33;;;;;;;6.86;100.00;102621.97;5016310;28;20380;-73
2020/12/19 00:10:06;;;;;;;73.93;43.15;;;;;;;6.85;100.00;102625.41;5017911;28;20339;-73
2020/12/19 00:12:57;;;;;;;77.28;40.35;;;;;;;6.58;100.00;102628.13;5017401;28;20030;-74
2020/12/19 00:15:43;;;;;;;72.55;40.17;;;;;;;7.09;100.00;102633.91;5016469;28;20030;-73
2020/12/19 00:18:28;;;;;;;73.25;40.28;;;;;;;6.74;100.00;102634.63;5015781;28;20029;-73
2020/12/19 00:21:14;;;;;;;76.47;41.10;;;;;;;6.98;100.00;102633.63;5016175;28;20053;-73
2020/12/19 00:24:01;;;;;;;70.90;39.17;;;;;;;7.03;100.00;102631.16;5016014;28;20037;-74
2020/12/19 00:26:47;;;;;;;64.70;36.53;;;;;;;6.81;100.00;102623.56;5015880;28;20366;-74
2020/12/19 00:29:33;;;;;;;67.45;38.33;;;;;;;6.41;100.00;102631.97;5015784;28;20096;-73
2020/12/19 00:32:18;;;;;;;68.13;38.08;;;;;;;6.47;100.00;102633.88;5015416;28;20083;-73
2020/12/19 00:35:05;;;;;;;63.70;36.30;;;;;;;6.87;100.00;102626.34;5016662;28;20085;-74
2020/12/19 00:37:50;;;;;;;66.97;36.38;;;;;;;6.93;100.00;102627.41;5014279;28;20030;-74
2020/12/19 00:40:36;;;;;;;61.97;36.50;;;;;;;6.94;100.00;102625.66;5015586;28;20370;-74
2020/12/19 00:43:22;;;;;;;65.60;36.45;;;;;;;6.65;100.00;102630.06;5015821;28;20354;-74
2020/12/19 00:46:12;;;;;;;70.53;38.65;;;;;;;6.93;100.00;102632.63;5015390;28;20502;-73
2020/12/19 00:48:58;;;;;;;71.60;38.33;;;;;;;6.36;100.00;102628.34;5015464;28;20057;-73
2020/12/19 00:51:44;;;;;;;70.60;38.83;;;;;;;6.17;100.00;102628.63;5016453;28;20057;-74
2020/12/19 00:54:30;;;;;;;71.15;38.92;;;;;;;6.36;100.00;102628.34;5015529;28;20485;-73
2020/12/19 00:57:15;;;;;;;68.60;36.88;;;;;;;6.65;100.00;102631.78;5016094;28;20068;-74
2020/12/19 01:00:03;;;;;;;66.05;37.03;;;;;;;6.50;100.00;102618.31;5015135;28;20041;-73
2020/12/19 01:02:49;;;;;;;67.20;36.65;;;;;;;6.64;100.00;102622.22;5014107;28;20026;-73
2020/12/19 01:05:35;;;;;;;62.55;35.55;;;;;;;6.63;100.00;102625.66;5015090;28;20053;-73
2020/12/19 01:08:20;;;;;;;64.55;35.63;;;;;;;6.71;100.00;102626.75;5015417;28;20097;-73
2020/12/19 01:11:06;;;;;;;61.33;33.35;;;;;;;6.44;100.00;102621.63;5014971;28;20095;-73
2020/12/19 01:13:53;;;;;;;66.40;34.50;;;;;;;6.59;100.00;102618.59;5015369;28;20025;-73
2020/12/19 01:16:38;;;;;;;61.38;34.88;;;;;;;6.62;100.00;102616.06;5014957;28;20084;-73
2020/12/19 01:19:24;;;;;;;68.72;36.53;;;;;;;6.49;100.00;102617.44;5014659;28;20030;-74
2020/12/19 01:22:10;;;;;;;65.88;35.10;;;;;;;6.49;100.00;102614.84;5015987;28;20079;-74
2020/12/19 01:24:56;;;;;;;61.33;32.92;;;;;;;6.54;100.00;102612.34;5014965;28;20524;-74
2020/12/19 01:27:41;;;;;;;70.35;36.83;;;;;;;6.43;100.00;102600.75;5015626;28;20553;-74
2020/12/19 01:30:27;;;;;;;66.65;36.22;;;;;;;6.16;100.00;102595.63;5015827;28;20040;-74
2020/12/19 01:33:13;;;;;;;64.88;35.67;;;;;;;5.92;100.00;102601.78;5014583;28;20462;-73
2020/12/19 01:35:59;;;;;;;63.83;34.20;;;;;;;5.67;100.00;102604.41;5014854;28;20354;-73
2020/12/19 01:38:45;;;;;;;62.72;34.22;;;;;;;5.94;100.00;102605.34;5014604;28;20028;-74
2020/12/19 01:41:30;;;;;;;69.10;36.53;;;;;;;5.95;100.00;102607.09;5015505;28;20049;-74
2020/12/19 01:44:16;;;;;;;72.00;36.63;;;;;;;5.64;100.00;102613.00;5014478;28;20366;-73
2020/12/19 01:47:03;;;;;;;76.57;38.03;;;;;;;5.81;100.00;102610.97;5014647;28;20389;-73
2020/12/19 01:49:49;;;;;;;73.22;37.35;;;;;;;5.80;100.00;102614.38;5014989;28;20130;-74
2020/12/19 01:52:36;;;;;;;68.15;35.95;;;;;;;5.77;100.00;102609.94;5014310;28;20028;-72
2020/12/19 01:55:22;;;;;;;65.18;35.50;;;;;;;6.15;100.00;102614.66;5015566;28;20030;-73
2020/12/19 01:58:08;;;;;;;66.38;35.42;;;;;;;6.04;100.00;102612.56;5014407;28;20463;-73
2020/12/19 02:00:57;;;;;;;67.93;36.40;;;;;;;6.37;100.00;102606.66;5014201;28;20037;-72
2020/12/19 02:03:43;;;;;;;65.13;34.72;;;;;;;6.17;100.00;102607.78;5014399;28;20084;-73
2020/12/19 02:06:29;;;;;;;64.65;35.00;;;;;;;6.58;100.00;102609.88;5014074;28;20108;-73
2020/12/19 02:09:17;;;;;;;69.82;38.33;;;;;;;6.80;100.00;102609.69;5013466;28;20034;-73
2020/12/19 02:12:04;;;;;;;70.25;36.38;;;;;;;6.07;100.00;102603.13;5014970;28;20071;-73
2020/12/19 02:14:50;;;;;;;65.28;36.15;;;;;;;6.42;100.00;102605.06;5015050;28;20423;-72
2020/12/19 02:17:36;;;;;;;68.88;35.60;;;;;;;6.49;100.00;102609.63;5013947;28;20022;-74
2020/12/19 02:20:21;;;;;;;66.18;35.70;;;;;;;6.25;100.00;102603.69;5013957;28;20084;-72
2020/12/19 02:23:07;;;;;;;67.15;35.70;;;;;;;6.45;100.00;102609.47;5014170;28;20057;-72
2020/12/19 02:25:53;;;;;;;66.75;37.05;;;;;;;6.27;100.00;102609.81;5014565;28;20034;-72
2020/12/19 02:28:39;;;;;;;69.03;35.25;;;;;;;6.32;100.00;102592.63;5014045;28;20022;-73
2020/12/19 02:31:24;;;;;;;71.65;38.47;;;;;;;6.02;100.00;102601.25;5014018;28;20116;-72
2020/12/19 02:34:10;;;;;;;69.15;35.55;;;;;;;6.15;100.00;102605.97;5015209;28;20036;-72
2020/12/19 02:36:56;;;;;;;73.20;37.45;;;;;;;5.98;100.00;102596.78;5013676;28;20029;-73
2020/12/19 02:39:42;;;;;;;63.42;34.40;;;;;;;5.93;100.00;102598.34;5014666;28;20026;-72
2020/12/19 02:42:27;;;;;;;66.18;34.83;;;;;;;6.40;100.00;102592.84;5013782;28;20048;-72
2020/12/19 02:45:13;;;;;;;68.35;36.13;;;;;;;5.75;100.00;102597.75;5012493;28;20041;-72
2020/12/19 02:47:59;;;;;;;64.65;34.58;;;;;;;6.07;100.00;102602.25;5013215;28;20026;-72
2020/12/19 02:50:45;;;;;;;69.05;36.10;;;;;;;6.07;100.00;102599.66;5014568;28;20038;-71
2020/12/19 02:53:30;;;;;;;65.75;35.25;;;;;;;6.23;100.00;102597.53;5013405;28;20042;-72
2020/12/19 02:56:16;;;;;;;68.47;35.95;;;;;;;6.35;100.00;102599.66;5013266;28;20030;-72
2020/12/19 02:59:02;;;;;;;69.32;35.88;;;;;;;6.31;100.00;102596.06;5012931;28;20040;-73
2020/12/19 03:01:48;;;;;;;68.20;34.70;;;;;;;6.14;100.00;102592.06;5012231;28;20022;-73
2020/12/19 03:04:34;;;;;;;64.13;35.55;;;;;;;6.28;100.00;102590.78;5014528;28;20058;-72
2020/12/19 03:07:19;;;;;;;61.40;32.97;;;;;;;6.12;100.00;102601.56;5013649;28;20064;-72
2020/12/19 03:10:05;;;;;;;60.65;32.88;;;;;;;6.37;100.00;102600.56;5013151;28;20032;-73
2020/12/19 03:12:51;;;;;;;63.88;33.85;;;;;;;6.80;100.00;102600.97;5013409;28;20049;-72
2020/12/19 03:15:36;;;;;;;62.55;34.53;;;;;;;6.46;100.00;102606.94;5013287;28;20099;-72
2020/12/19 03:18:22;;;;;;;66.28;35.00;;;;;;;6.47;100.00;102613.91;5012952;28;20117;-73
2020/12/19 03:21:08;;;;;;;67.10;34.72;;;;;;;6.70;100.00;102615.44;5012761;28;20370;-72
2020/12/19 03:23:54;;;;;;;66.45;35.90;;;;;;;6.77;100.00;102609.56;5013329;28;20343;-72
2020/12/19 03:26:39;;;;;;;68.65;35.75;;;;;;;6.11;100.00;102617.13;5013216;28;20022;-72
2020/12/19 03:29:25;;;;;;;65.50;35.50;;;;;;;6.36;100.00;102614.44;5012799;28;20026;-72
2020/12/19 03:32:11;;;;;;;73.13;36.88;;;;;;;6.63;100.00;102617.84;5013428;28;20062;-72
2020/12/19 03:34:56;;;;;;;73.55;37.10;;;;;;;6.51;100.00;102620.97;5013058;28;20367;-72
2020/12/19 03:37:42;;;;;;;70.57;36.80;;;;;;;6.22;100.00;102628.75;5013070;28;20022;-72
2020/12/19 03:40:28;;;;;;;76.63;38.13;;;;;;;6.25;100.00;102632.34;5012857;28;20034;-72
2020/12/19 03:43:14;;;;;;;75.95;37.80;;;;;;;6.45;100.00;102627.72;5012559;28;20026;-73
2020/12/19 03:46:00;;;;;;;79.03;37.45;;;;;;;5.97;100.00;102629.72;5013759;28;20018;-72
2020/12/19 03:48:45;;;;;;;93.15;46.60;;;;;;;6.03;100.00;102634.22;5012773;28;20082;-72
2020/12/19 03:51:31;;;;;;;80.38;40.20;;;;;;;5.94;100.00;102633.94;5012300;28;20026;-72
2020/12/19 03:54:17;;;;;;;81.20;40.20;;;;;;;6.21;100.00;102635.69;5013869;28;20164;-72
2020/12/19 03:57:03;;;;;;;80.32;38.38;;;;;;;5.94;100.00;102641.75;5012951;28;20091;-73
2020/12/19 03:59:48;;;;;;;80.70;37.80;;;;;;;6.13;100.00;102636.25;5012886;28;20109;-72
2020/12/19 04:02:35;;;;;;;79.18;38.78;;;;;;;6.15;100.00;102640.69;5011886;28;20026;-72
2020/12/19 04:05:21;;;;;;;83.50;39.30;;;;;;;5.78;100.00;102639.47;5012367;28;20458;-72
2020/12/19 04:08:07;;;;;;;74.07;37.13;;;;;;;6.31;100.00;102645.50;5012394;28;20033;-72
2020/12/19 04:10:53;;;;;;;73.78;37.40;;;;;;;6.31;100.00;102642.91;5012747;28;20025;-72
2020/12/19 04:13:38;;;;;;;75.03;35.40;;;;;;;5.86;100.00;102638.88;5016197;28;20030;-72
2020/12/19 04:16:24;;;;;;;77.65;37.50;;;;;;;6.19;100.00;102645.13;5017467;28;20062;-72
2020/12/19 04:19:10;;;;;;;79.97;38.83;;;;;;;6.05;100.00;102653.34;5015888;28;20028;-72
2020/12/19 04:21:56;;;;;;;81.10;38.60;;;;;;;6.37;100.00;102653.53;5016634;28;20450;-72
2020/12/19 04:24:42;;;;;;;75.28;37.15;;;;;;;6.02;100.00;102658.50;5017250;28;20390;-72
2020/12/19 04:27:28;;;;;;;79.35;37.13;;;;;;;5.73;100.00;102654.91;5015584;28;20033;-72
2020/12/19 04:30:13;;;;;;;87.88;39.08;;;;;;;6.09;100.00;102663.03;5016233;28;20462;-72
2020/12/19 04:32:59;;;;;;;82.35;37.90;;;;;;;6.26;100.00;102656.66;5015846;28;20091;-71
2020/12/19 04:35:45;;;;;;;84.85;38.50;;;;;;;5.77;100.00;102656.78;5015902;28;20057;-72
2020/12/19 04:38:31;;;;;;;79.63;36.67;;;;;;;6.14;100.00;102664.09;5015138;28;20034;-72
2020/12/19 04:41:17;;;;;;;82.38;37.83;;;;;;;5.97;100.00;102665.25;5015312;28;20235;-72
2020/12/19 04:44:04;;;;;;;80.65;37.75;;;;;;;5.93;100.00;102668.56;5015904;28;20040;-73
2020/12/19 04:46:50;;;;;;;81.85;38.17;;;;;;;5.84;100.00;102663.09;5015467;28;20466;-72
2020/12/19 04:49:36;;;;;;;82.63;37.92;;;;;;;5.88;100.00;102671.03;5015583;28;20470;-73
2020/12/19 04:52:23;;;;;;;81.05;36.53;;;;;;;6.02;100.00;102674.09;5016506;28;20505;-72
2020/12/19 04:55:09;;;;;;;80.32;36.72;;;;;;;5.96;100.00;102668.69;5015873;28;20038;-73
2020/12/19 04:57:57;;;;;;;79.30;36.05;;;;;;;5.57;100.00;102673.41;5015473;28;20018;-72
2020/12/19 05:00:43;;;;;;;82.13;37.53;;;;;;;5.93;100.00;102666.88;5014530;28;20029;-72
2020/12/19 05:03:28;;;;;;;74.55;35.63;;;;;;;5.99;100.00;102672.25;5015208;28;20029;-72
2020/12/19 05:06:25;;;;;;;76.30;35.90;;;;;;;5.69;100.00;102675.53;5015232;28;20041;-73
2020/12/19 05:09:11;;;;;;;77.15;37.22;;;;;;;6.14;100.00;102674.50;5014923;28;20339;-73
2020/12/19 05:11:57;;;;;;;77.85;33.88;;;;;;;5.88;100.00;102670.16;5016075;28;20075;-72
2020/12/19 05:14:42;;;;;;;71.18;33.83;;;;;;;5.86;100.00;102666.63;5015346;28;20033;-72
2020/12/19 05:17:28;;;;;;;81.65;37.55;;;;;;;5.76;100.00;102667.13;5014844;28;20026;-72
2020/12/19 05:20:14;;;;;;;82.38;36.95;;;;;;;5.54;100.00;102670.72;5016391;28;20057;-71
2020/12/19 05:23:00;;;;;;;80.05;38.22;;;;;;;5.73;100.00;102669.59;5014453;28;20064;-72
2020/12/19 05:25:46;;;;;;;79.30;37.08;;;;;;;6.17;100.00;102674.56;5016334;28;20520;-72
2020/12/19 05:28:36;;;;;;;83.05;37.33;;;;;;;6.28;100.00;102675.78;5015062;28;20581;-72
2020/12/19 05:31:22;;;;;;;80.07;36.63;;;;;;;5.88;100.00;102670.16;5015545;28;20037;-72
2020/12/19 05:34:12;;;;;;;77.68;35.30;;;;;;;5.81;100.00;102674.28;5014881;28;20026;-71
2020/12/19 05:36:58;;;;;;;69.10;33.28;;;;;;;5.99;100.00;102689.59;5014669;28;20048;-72
2020/12/19 05:39:52;;;;;;;72.22;34.10;;;;;;;5.60;100.00;102683.03;5015824;28;20038;-73
2020/12/19 05:42:42;;;;;;;74.70;36.55;;;;;;;5.66;100.00;102694.53;5014493;28;20030;-73
2020/12/19 05:45:29;;;;;;;81.88;38.20;;;;;;;6.00;100.00;102688.75;5015462;28;20045;-73
2020/12/19 05:48:15;;;;;;;77.63;36.22;;;;;;;6.18;100.00;102703.25;5015474;28;20085;-73
2020/12/19 05:51:01;;;;;;;78.18;36.95;;;;;;;6.25;100.00;102701.72;5014173;28;20117;-74
2020/12/19 05:53:51;;;;;;;78.75;37.33;;;;;;;6.32;100.00;102701.97;5014819;28;20451;-75
2020/12/19 05:56:44;;;;;;;76.10;36.05;;;;;;;6.42;100.00;102703.13;5014825;28;20038;-74
2020/12/19 05:59:30;;;;;;;83.53;37.58;;;;;;;6.43;100.00;102705.75;5013819;28;20112;-74
2020/12/19 06:02:16;;;;;;;81.72;36.95;;;;;;;6.11;100.00;102706.47;5015341;28;20022;-74
2020/12/19 06:05:08;;;;;;;78.18;35.92;;;;;;;6.08;100.00;102702.91;5014055;28;20030;-72
2020/12/19 06:07:54;;;;;;;78.07;34.50;;;;;;;5.94;100.00;102709.38;5013692;28;20058;-73
2020/12/19 06:10:40;;;;;;;72.63;33.53;;;;;;;5.98;100.00;102704.31;5015106;28;20041;-73
2020/12/19 06:13:27;;;;;;;77.03;34.70;;;;;;;5.78;100.00;102710.53;5013923;28;20032;-73
2020/12/19 06:16:16;;;;;;;75.88;37.33;;;;;;;5.92;100.00;102704.13;5014003;28;20045;-74
2020/12/19 06:19:23;;;;;;;86.07;37.90;;;;;;;5.66;100.00;102714.47;5014831;28;20096;-73
2020/12/19 06:22:09;;;;;;;75.55;34.85;;;;;;;6.28;100.00;102707.91;5013780;28;20454;-73
2020/12/19 06:24:56;;;;;;;71.85;34.28;;;;;;;6.03;100.00;102712.28;5013864;28;20434;-73
2020/12/19 06:27:42;;;;;;;71.30;33.70;;;;;;;6.49;100.00;102705.97;5013355;28;20026;-73
2020/12/19 06:30:29;;;;;;;70.50;33.45;;;;;;;5.61;100.00;102714.28;5013428;28;20030;-73
2020/12/19 06:33:16;;;;;;;67.15;31.88;;;;;;;5.39;100.00;102717.00;5012941;28;20033;-73
2020/12/19 06:36:17;;;;;;;71.40;32.38;;;;;;;5.81;100.00;102713.28;5013340;28;20108;-73
2020/12/19 06:39:05;;;;;;;81.43;37.45;;;;;;;5.87;100.00;102710.88;5013382;28;20026;-78
2020/12/19 06:41:55;;;;;;;76.80;36.03;;;;;;;5.74;100.00;102716.47;5013679;28;20053;-73
2020/12/19 06:44:41;;;;;;;70.95;32.03;;;;;;;5.84;100.00;102699.50;5013535;28;20033;-73
2020/12/19 06:47:30;;;;;;;63.38;29.40;;;;;;;5.70;100.00;102703.34;5013589;28;20033;-73
2020/12/19 06:50:17;;;;;;;64.95;27.52;;;;;;;6.19;100.00;102705.00;5013158;28;20046;-74
2020/12/19 06:53:03;;;;;;;63.50;29.92;;;;;;;6.16;100.00;102711.84;5014157;28;20084;-75
2020/12/19 06:55:48;;;;;;;60.92;29.20;;;;;;;6.33;100.00;102708.94;5013324;28;20041;-72
2020/12/19 06:58:35;;;;;;;63.83;29.40;;;;;;;6.15;100.00;102707.47;5013223;28;20072;-74
2020/12/19 07:01:28;;;;;;;63.28;30.73;;;;;;;5.78;100.00;102709.69;5013063;28;20022;-74
2020/12/19 07:04:34;;;;;;;63.70;30.45;;;;;;;6.07;100.00;102716.75;5014299;28;20060;-74
2020/12/19 07:07:25;;;;;;;64.90;31.20;;;;;;;6.27;100.00;102716.53;5014262;28;20026;-73
2020/12/19 07:10:11;;;;;;;65.22;29.80;;;;;;;6.38;100.00;102714.31;5012363;28;20026;-73
2020/12/19 07:12:58;;;;;;;68.40;31.48;;;;;;;6.27;100.00;102718.28;5012330;28;20048;-73
2020/12/19 07:15:45;;;;;;;64.82;31.95;;;;;;;6.43;100.00;102715.31;5013377;28;20062;-72
2020/12/19 07:18:33;;;;;;;89.47;43.25;;;;;;;6.40;100.00;102717.81;5012101;28;20026;-71
2020/12/19 07:21:19;;;;;;;76.30;36.95;;;;;;;6.18;100.00;102718.00;5013026;28;20128;-72
2020/12/19 07:24:04;;;;;;;66.47;32.42;;;;;;;6.37;100.00;102717.72;5014125;28;20025;-73
2020/12/19 07:26:51;;;;;;;70.78;33.00;;;;;;;6.49;100.00;102719.00;5012868;28;20033;-72
2020/12/19 07:29:37;;;;;;;69.75;32.28;;;;;;;6.38;100.00;102725.56;5012682;28;20109;-72
2020/12/19 07:32:23;;;;;;;73.30;31.80;;;;;;;6.25;100.00;102723.44;5014269;28;20040;-73
2020/12/19 07:35:09;;;;;;;62.05;30.75;;;;;;;6.36;100.00;102726.38;5012345;28;20105;-73
2020/12/19 07:37:56;;;;;;;57.47;30.00;;;;;;;6.46;100.00;102721.50;5013335;28;20032;-73
2020/12/19 07:40:42;;;;;;;68.53;32.88;;;;;;;6.82;100.00;102726.91;5012209;28;20160;-72
2020/12/19 07:43:27;;;;;;;63.92;31.05;;;;;;;6.40;100.00;102723.03;5012486;28;20030;-71
2020/12/19 07:46:13;;;;;;;69.47;31.38;;;;;;;6.78;100.00;102725.06;5013359;28;20030;-73
2020/12/19 07:48:59;;;;;;;60.83;27.67;;;;;;;6.21;100.00;102733.69;5017385;28;20042;-73
2020/12/19 07:51:44;;;;;;;52.95;24.95;;;;;;;5.81;100.00;102731.50;5015992;28;20109;-72
2020/12/19 07:54:30;;;;;;;90.88;46.30;;;;;;;6.07;100.00;102735.84;5017471;28;20033;-73
2020/12/19 07:57:16;;;;;;;68.47;34.90;;;;;;;6.33;100.00;102736.69;5016249;28;20022;-73
2020/12/19 08:00:03;;;;;;;80.18;33.47;;;;;;;6.31;100.00;102725.34;5016417;28;20025;-74
2020/12/19 08:02:50;;;;;;;58.47;29.08;;;;;;;6.40;100.00;102725.63;5016157;28;20476;-75
2020/12/19 08:05:35;;;;;;;64.30;29.88;;;;;;;6.29;100.00;102720.09;5016619;28;20030;-73
2020/12/19 08:08:21;;;;;;;56.10;25.58;;;;;;;6.22;100.00;102730.28;5015752;28;20040;-74
2020/12/19 08:11:07;;;;;;;63.80;29.13;;;;;;;6.19;100.00;102725.81;5015363;28;20099;-72
2020/12/19 08:13:53;;;;;;;60.05;27.40;;;;;;;6.07;100.00;102724.56;5016251;28;20038;-73
2020/12/19 08:16:39;;;;;;;66.82;29.83;;;;;;;6.49;100.00;102723.31;5017211;28;20025;-73
2020/12/19 08:19:38;;;;;;;66.85;29.15;;;;;;;6.39;100.00;102724.72;5015906;28;20088;-74
2020/12/19 08:22:29;;;;;;;63.92;29.48;;;;;;;6.56;100.00;102722.66;5016589;28;20050;-73
2020/12/19 08:25:15;;;;;;;59.22;26.80;;;;;;;6.61;100.00;102721.06;5017205;28;20354;-72
2020/12/19 08:28:01;;;;;;;62.80;27.23;;;;;;;6.15;100.00;102720.50;5015993;28;20026;-72
2020/12/19 08:30:46;;;;;;;62.45;27.45;;;;;;;6.04;100.00;102714.94;5015694;28;20411;-72
2020/12/19 08:33:33;;;;;;;61.67;26.30;;;;;;;6.09;100.00;102708.16;5015572;28;20030;-73
2020/12/19 08:36:19;;;;;;;62.97;25.90;;;;;;;5.82;100.00;102704.66;5015619;28;20041;-73
2020/12/19 08:39:18;;;;;;;55.15;24.95;;;;;;;5.86;100.00;102703.06;5015687;28;20034;-73
2020/12/19 08:42:10;;;;;;;52.75;25.05;;;;;;;5.82;100.00;102714.19;5015668;28;20029;-73
2020/12/19 08:45:12;;;;;;;63.33;27.10;;;;;;;6.19;100.00;102711.94;5016580;28;20422;-73
2020/12/19 08:48:04;;;;;;;64.45;27.70;;;;;;;6.26;100.00;102711.31;5015494;28;20053;-73
2020/12/19 08:50:52;;;;;;;63.70;29.70;;;;;;;6.50;100.00;102714.66;5015797;28;20033;-72
2020/12/19 08:53:46;;;;;;;63.03;29.15;;;;;;;6.04;100.00;102704.53;5016293;28;20049;-73
2020/12/19 08:56:35;;;;;;;63.72;28.85;;;;;;;6.24;100.00;102710.38;5015709;28;20483;-72
2020/12/19 08:59:33;;;;;;;51.90;24.38;;;;;;;6.20;100.00;102705.91;5013252;28;20454;-72
2020/12/19 09:02:21;;;;;;;56.50;25.35;;;;;;;6.13;100.00;102704.81;5015330;28;20026;-72
2020/12/19 09:05:07;;;;;;;56.20;26.35;;;;;;;6.30;100.00;102698.41;5016195;28;20489;-73
2020/12/19 09:07:57;;;;;;;56.45;27.23;;;;;;;6.30;100.00;102690.63;5016262;28;20112;-74
2020/12/19 09:10:42;;;;;;;66.13;30.40;;;;;;;6.82;100.00;102695.66;5002237;28;20377;-73
2020/12/19 09:13:29;;;;;;;61.42;31.17;;;;;;;6.80;100.00;102686.94;5014794;28;20514;-77
2020/12/19 09:16:14;;;;;;;60.20;28.70;;;;;;;6.72;100.00;102684.13;5015941;28;20037;-73
2020/12/19 09:19:00;;;;;;;61.22;28.40;;;;;;;6.06;100.00;102681.16;5014611;28;20403;-73
2020/12/19 09:22:05;;;;;;;56.45;28.45;;;;;;;5.95;100.00;102679.94;5014910;28;20061;-72
2020/12/19 09:24:50;;;;;;;56.40;27.50;;;;;;;6.33;100.00;102679.41;5015260;28;20037;-73
2020/12/19 09:27:37;;;;;;;54.38;25.92;;;;;;;6.34;100.00;102681.19;5015689;28;20092;-73
2020/12/19 09:30:22;;;;;;;49.08;24.08;;;;;;;6.36;100.00;102671.69;5015076;28;20054;-72
2020/12/19 09:33:08;;;;;;;60.00;29.15;;;;;;;5.44;100.00;102668.66;5014635;28;20053;-73
2020/12/19 09:35:54;;;;;;;50.70;24.58;;;;;;;6.33;100.00;102663.78;5014617;28;20026;-74
2020/12/19 09:38:40;;;;;;;56.60;27.65;;;;;;;6.69;100.00;102665.78;5014752;28;20034;-73
2020/12/19 09:41:26;;;;;;;56.85;28.55;;;;;;;6.77;100.00;102666.00;5014100;28;20038;-74
2020/12/19 09:44:11;;;;;;;59.65;28.77;;;;;;;6.40;100.00;102665.75;5015626;28;20021;-73
2020/12/19 09:46:57;;;;;;;56.30;29.23;;;;;;;6.69;100.00;102667.50;5015489;28;20018;-73
2020/12/19 09:49:43;;;;;;;78.38;34.85;;;;;;;5.99;100.00;102660.97;5014202;28;20049;-73
2020/12/19 09:52:29;;;;;;;67.15;30.27;;;;;;;5.87;100.00;102652.78;5015325;28;20425;-72
2020/12/19 09:55:15;;;;;;;78.07;32.28;;;;;;;6.03;100.00;102660.25;5014530;28;20386;-73
2020/12/19 09:58:00;;;;;;;64.70;29.77;;;;;;;6.41;100.00;102652.78;5014201;28;20058;-72
2020/12/19 10:00:46;;;;;;;67.60;29.65;;;;;;;6.02;100.00;102653.28;5015341;28;20111;-73
2020/12/19 10:03:32;;;;;;;68.80;31.70;;;;;;;6.21;100.00;102651.28;5013857;28;20057;-73
2020/12/19 10:06:18;;;;;;;64.65;31.27;;;;;;;6.39;100.00;102643.16;5014552;28;20021;-73
2020/12/19 10:09:03;;;;;;;73.93;33.33;;;;;;;6.28;100.00;102647.16;5015081;28;20025;-73
2020/12/19 10:11:54;;;;;;;63.75;28.40;;;;;;;5.75;100.00;102632.44;5013901;28;20053;-73
2020/12/19 10:14:41;;;;;;;69.63;32.28;;;;;;;5.82;100.00;102629.22;5014123;28;20145;-71
2020/12/19 10:17:26;;;;;;;73.30;32.47;;;;;;;6.18;100.00;102632.09;5014173;28;20392;-71
2020/12/19 10:20:12;;;;;;;72.40;30.45;;;;;;;6.26;100.00;102630.63;5013946;28;20030;-72
2020/12/19 10:22:58;;;;;;;74.13;32.25;;;;;;;6.22;100.00;102631.38;5015000;28;20032;-73
2020/12/19 10:25:43;;;;;;;68.85;33.45;;;;;;;6.21;100.00;102627.88;5014155;28;20022;-74
2020/12/19 10:28:29;;;;;;;74.25;29.92;;;;;;;6.30;100.00;102627.28;5014444;28;20042;-72
2020/12/19 10:31:15;;;;;;;63.70;28.60;;;;;;;6.65;100.00;102623.97;5013962;28;20033;-71
2020/12/19 10:34:04;;;;;;;59.13;29.70;;;;;;;6.56;100.00;102623.72;5015237;28;20100;-71
2020/12/19 10:36:53;;;;;;;59.00;29.70;;;;;;;5.96;100.00;102609.75;5015177;28;20335;-73
2020/12/19 10:39:42;;;;;;;60.53;28.05;;;;;;;6.50;100.00;102623.50;5014370;28;20476;-72
2020/12/19 10:42:27;;;;;;;65.53;30.30;;;;;;;6.26;100.00;102613.25;5014299;28;20026;-73
2020/12/19 10:45:13;;;;;;;66.22;32.25;;;;;;;6.38;100.00;102618.84;5014594;28;20048;-73
2020/12/19 10:47:59;;;;;;;66.05;32.22;;;;;;;6.51;100.00;102615.75;5014021;28;20034;-73
2020/12/19 10:50:45;;;;;;;74.30;33.72;;;;;;;6.48;100.00;102609.59;5015394;28;20037;-73
2020/12/19 10:53:30;;;;;;;71.50;36.63;;;;;;;6.33;100.00;102609.13;5014765;28;20026;-72
2020/12/19 10:56:20;;;;;;;65.97;33.65;;;;;;;6.60;100.00;102616.03;5016300;28;20057;-73
2020/12/19 10:59:06;;;;;;;70.55;35.00;;;;;;;6.45;100.00;102605.16;5016687;28;20034;-73
2020/12/19 11:01:52;;;;;;;79.57;39.28;;;;;;;6.49;100.00;102604.41;5015021;28;20040;-73
2020/12/19 11:04:38;;;;;;;62.95;30.35;;;;;;;6.15;100.00;102605.97;5015490;28;20029;-73
2020/12/19 11:07:23;;;;;;;72.72;34.55;;;;;;;6.56;100.00;102606.38;5015583;28;20026;-72
2020/12/19 11:10:09;;;;;;;78.85;38.03;;;;;;;6.37;100.00;102601.47;5015283;28;20095;-74
2020/12/19 11:12:55;;;;;;;71.82;33.85;;;;;;;6.83;100.00;102598.44;5013737;28;20022;-73
2020/12/19 11:15:41;;;;;;;75.93;34.55;;;;;;;6.64;100.00;102602.28;5013602;28;20425;-73
2020/12/19 11:18:26;;;;;;;82.32;39.05;;;;;;;6.57;100.00;102599.41;5013821;28;20034;-73
2020/12/19 11:21:12;;;;;;;72.18;33.40;;;;;;;6.54;100.00;102596.72;5012541;28;20082;-74
2020/12/19 11:23:58;;;;;;;68.68;34.55;;;;;;;6.23;100.00;102597.53;5016987;28;20021;-73
2020/12/19 11:26:43;;;;;;;68.90;34.60;;;;;;;6.67;100.00;102601.47;5018285;28;20025;-73
2020/12/19 11:29:29;;;;;;;68.78;31.38;;;;;;;6.15;100.00;102592.97;5017024;28;20374;-73
2020/12/19 11:32:15;;;;;;;80.32;39.40;;;;;;;6.57;100.00;102597.72;5016967;28;20466;-74
2020/12/19 11:35:01;;;;;;;83.38;40.17;;;;;;;6.73;100.00;102592.09;5017898;28;20037;-74
2020/12/19 11:37:46;;;;;;;76.22;36.03;;;;;;;6.80;100.00;102590.53;5016843;28;20039;-73
2020/12/19 11:40:32;;;;;;;81.03;35.22;;;;;;;6.64;100.00;102601.38;5016502;28;20041;-72
2020/12/19 11:43:18;;;;;;;82.85;37.50;;;;;;;6.61;100.00;102602.16;5016622;28;20026;-72
2020/12/19 11:46:07;;;;;;;79.13;36.03;;;;;;;6.14;100.00;102593.81;5016298;28;20026;-72
2020/12/19 11:48:53;;;;;;;78.03;38.75;;;;;;;6.67;100.00;102602.31;5017851;28;20046;-73
2020/12/19 11:51:39;;;;;;;87.13;40.60;;;;;;;6.60;100.00;102594.31;5016790;28;20072;-72
2020/12/19 11:54:25;;;;;;;87.30;39.95;;;;;;;6.43;100.00;102595.56;5016658;28;20041;-75
2020/12/19 11:57:10;;;;;;;84.78;39.55;;;;;;;6.51;100.00;102594.91;5016484;28;20025;-73
2020/12/19 11:59:56;;;;;;;85.32;40.65;;;;;;;6.70;100.00;102592.00;5016300;28;20100;-72
2020/12/19 12:02:42;;;;;;;83.15;38.40;;;;;;;6.58;100.00;102595.97;5015799;28;20095;-73
2020/12/19 12:05:28;;;;;;;79.05;37.45;;;;;;;7.03;100.00;102590.31;5016595;28;20033;-73
2020/12/19 12:08:13;;;;;;;70.05;35.00;;;;;;;7.27;100.00;102583.13;5017962;28;20049;-74
2020/12/19 12:10:59;;;;;;;79.88;34.40;;;;;;;7.10;100.00;102578.31;5016153;28;20359;-74
2020/12/19 12:13:45;;;;;;;64.57;31.42;;;;;;;6.69;100.00;102584.16;5015825;28;20076;-73
2020/12/19 12:16:30;;;;;;;67.68;32.83;;;;;;;6.79;100.00;102575.75;5017239;28;20033;-73
2020/12/19 12:19:16;;;;;;;67.43;32.13;;;;;;;6.80;100.00;102577.50;5016656;28;20469;-73
2020/12/19 12:22:02;;;;;;;66.22;30.70;;;;;;;6.75;100.00;102571.31;5016992;28;20047;-74
2020/12/19 12:24:48;;;;;;;63.05;30.42;;;;;;;6.63;100.00;102576.19;5015643;28;20033;-72
2020/12/19 12:27:33;;;;;;;62.75;30.75;;;;;;;6.90;100.00;102575.19;5017046;28;20033;-73
2020/12/19 12:30:19;;;;;;;58.78;27.95;;;;;;;6.45;100.00;102567.81;5016086;28;20026;-74
2020/12/19 12:33:05;;;;;;;58.13;28.85;;;;;;;6.64;100.00;102576.22;5015334;28;20454;-73
2020/12/19 12:35:51;;;;;;;59.78;30.23;;;;;;;6.82;100.00;102565.41;5015491;28;20045;-72
2020/12/19 12:38:36;;;;;;;64.53;31.70;;;;;;;6.65;100.00;102564.97;5016862;28;20062;-72